COOK1: Arkansas River Nr Coolidge, KS

                                SHEF ID:       COOK1     ARKANSAS R NR COOLIDGE, KS
STATION TYPE:
Regulating: Stage = 8.00, Flow = 2050

PRECIP STAGE STAGE(2) RIV-FLOW WTR-TEMP CONDUCT BAT-LOAD
in ft ft cfs F umho/cm volt
Ccp-Rev Ccp-Rev Ccp-Rev Ccp-Rev Ccp-Rev Ccp-Rev Ccp-Rev
(America/Chicago)
07/14 00:00 0.00 3.58 3.75 193 79.39 3472 13.00
07/14 01:00 0.00 3.60 3.77 196 78.33 3434 12.95
07/14 02:00 0.00 3.63 3.79 202 77.22 3402 12.89
07/14 03:00 0.00 3.66 3.85 207 76.26 3400 12.89
07/14 04:00 0.00 3.68 3.88 211 75.56 3398 12.89
07/14 05:00 0.00 3.69 3.90 213 74.71 3400 12.89
07/14 06:00 0.00 3.73 3.93 220 73.92 3393 12.83
07/14 07:00 0.00 3.74 3.92 222 73.29 3368 12.83
07/14 08:00 0.00 3.78 3.96 230 72.90 3344 12.83
07/14 09:00 0.00 3.80 3.99 234 72.84 3310 12.95
07/14 10:00 0.00 3.81 4.00 236 73.31 3316 13.18
07/14 11:00 0.00 3.81 4.02 236 74.30 3316 13.53
07/14 12:00 0.00 3.81 4.03 236 75.74 3299 13.71
07/14 13:00 0.00 3.82 4.01 238 77.31 3326 13.77
07/14 14:00 0.00 3.83 4.02 240 79.07 3314 13.59
07/14 15:00 0.00 3.86 4.03 246 80.80 3301 13.65
07/14 16:00 0.00 3.86 4.04 246 82.09 3308 13.53
07/14 17:00 0.00 3.86 4.02 246 83.14 3303 13.42
07/14 18:00 0.00 3.84 3.97 242 83.79 3321 13.30
07/14 19:00 0.00 3.87 3.98 248 83.73 3301 13.18
07/14 20:00 0.00 3.88 4.06 250 83.43 3294 13.12
07/14 21:00 0.00 3.89 4.05 252 82.98 3280 13.07
07/14 22:00 0.00 3.89 4.08 252 82.45 3271 13.00
07/14 23:00 ---- ---- ---- ---- ---- ---- ----
Data processed at Mon 15Jul2024 04:30 GMT

Parsing this webpage?

Checkout our new Data API! CWMSDataAPI (CDA)

Timeseries IDs (TSIDs)

TSIDs used from left to right in the data table
COOL.Precip-Inc.Total.1Hour.1Hour.Ccp-Rev
COOL.Stage.Inst.1Hour.0.Ccp-Rev
COOL.Stage-Alt.Inst.1Hour.0.Ccp-Rev
COOL.Flow.Inst.1Hour.0.Ccp-Rev
COOL.Temp-Water.Inst.1Hour.0.Ccp-Rev
COOL.Cond.Inst.1Hour.0.Ccp-Rev
COOL.Volt-Battery Load.Inst.1Hour.0.Ccp-Rev

                            

All information presented herein is the property of the government of the United States of America and may be revised or deleted at any time without prior notice. Dissemination of this information without the expressed written consent of the Public Affairs Office, Tulsa District U.S. Army Corps of Engineers is strictly prohibited. These data are gathered electronically and, as presented, have NOT undergone any form of quality control. These data are NOT guaranteed to be valid or correct.